Portada
METAR-TAF:

METAR-TAF

Aeroports :

Army Air Corps Middle Wallop

Middle Wallop, Anglaterra

latitud: 51-09N, longitud: 001-34W, altitud: 91 m

Observació

L'informe es va fer fa 37 minuts, a les 20:50 UTC
Vent 9 kt del Sud/Sud-Oest
Temperatura 17°C
Humitat 100%
Pressió 1008 hPa
Visibilitat 10 km o més

METAR: EGVP 192050Z AUTO 20009KT 9999 // OVC005/// 17/17 Q1008

Hora: 22:27 (21:27 UTC)

Pronòstic

L'informe es va fer fa 8 hores i 58 minuts, a les 12:29 UTC
Pronòstic vàlid del 19 a les 12 UTC al 19 a les 17 UTC
Vent 12 kt del Sud/Sud-Oest
Visibilitat: 3000 m
Cel ennuvolat a una alçada de 300 ft
pluja, plugim
Probabilitat 40% :
Temporalment
l' 19 a les 12 UTC al 19 a les 14 UTC
Visibilitat: 5000 m
Cel ennuvolat a una alçada de 600 ft
Temporalment
l' 19 a les 14 UTC al 19 a les 17 UTC
Visibilitat: 5000 m
Cel ennuvolat a una alçada de 600 ft
pluja

TAF: EGVP 191229Z 1912/1917 21012KT 3000 -RADZ BKN003 PROB40 TEMPO 1912/1914 5000 BKN006 TEMPO 1914/1917 5000 RA BKN006

Observacions i pronòstics meteorològics de més de 4000 aeroports (METAR i TAF).

Les estacions disponibles són els punts grocs i vermells al mapa.

Posi el ratolí al punt desitjat per veure el nom de l'estació.

Feu clic per veure les observacions i els pronòstics meteorològics.

Per canviar el mapa: feu clic els botons verds amb una creu de color negre per apropar; al botó verd amb un guió per allunyar la imatge; o en les fletxes verdes per a mapes adjacents.


METAR-TAF: